createdAt,value
2018-08-18T00:04:24.318Z,3.90
2018-08-18T00:09:27.351Z,6.73
2018-08-18T00:14:31.408Z,2.30
2018-08-18T00:19:34.436Z,2.67
2018-08-18T00:24:41.303Z,2.13
2018-08-18T00:29:44.303Z,2.10
2018-08-18T00:34:53.547Z,2.50
2018-08-18T00:39:57.072Z,3.40
2018-08-18T00:45:00.163Z,2.60
2018-08-18T00:50:03.289Z,2.30
2018-08-18T00:55:06.340Z,1.80
2018-08-18T01:00:09.374Z,2.20
2018-08-18T01:05:12.388Z,1.97
2018-08-18T01:10:15.443Z,2.07
2018-08-18T01:15:22.879Z,2.30
2018-08-18T01:20:25.897Z,4.20
2018-08-18T01:25:28.953Z,2.20
2018-08-18T01:30:31.952Z,1.83
2018-08-18T01:35:34.978Z,2.53
2018-08-18T01:40:38.000Z,1.90
2018-08-18T01:45:41.115Z,1.90
2018-08-18T01:50:44.119Z,2.17
2018-08-18T01:55:47.221Z,3.80
2018-08-18T02:00:50.240Z,2.57
2018-08-18T02:05:53.277Z,3.03
2018-08-18T02:10:56.290Z,3.23
2018-08-18T02:15:59.439Z,2.33
2018-08-18T02:21:02.476Z,2.27
2018-08-18T02:26:05.575Z,4.17
2018-08-18T02:31:08.592Z,2.70
2018-08-18T02:36:11.634Z,3.90
2018-08-18T02:41:14.665Z,3.20
2018-08-18T02:46:24.354Z,2.07
2018-08-18T02:51:27.369Z,3.03
2018-08-18T02:56:35.971Z,2.40
2018-08-18T03:01:40.913Z,3.20
2018-08-18T03:06:43.943Z,5.23
2018-08-18T03:11:46.956Z,2.73
2018-08-18T03:16:49.976Z,9.80
2018-08-18T03:21:52.995Z,6.30
2018-08-18T03:26:57.151Z,2.90
2018-08-18T03:32:00.178Z,2.77
2018-08-18T03:37:04.105Z,4.57
2018-08-18T03:42:07.137Z,3.70
2018-08-18T03:47:10.144Z,4.13
2018-08-18T03:52:13.144Z,4.20
2018-08-18T03:57:16.166Z,5.23
2018-08-18T04:02:19.189Z,3.00
2018-08-18T04:07:22.645Z,5.23
2018-08-18T04:12:25.668Z,11.23
2018-08-18T04:17:31.025Z,3.50
2018-08-18T04:22:34.051Z,3.30
2018-08-18T04:27:41.582Z,4.73
2018-08-18T04:32:53.383Z,4.70
2018-08-18T04:37:57.430Z,4.93
2018-08-18T04:43:01.328Z,3.10
2018-08-18T04:48:04.840Z,7.53
2018-08-18T04:53:07.866Z,3.57
2018-08-18T04:58:10.961Z,3.60
2018-08-18T05:03:13.999Z,3.50
2018-08-18T05:08:17.040Z,5.27
2018-08-18T05:13:20.068Z,7.93
2018-08-18T05:18:23.169Z,3.13
2018-08-18T05:23:26.183Z,2.07
2018-08-18T05:28:29.272Z,8.33
2018-08-18T05:33:32.308Z,7.57
2018-08-18T05:38:35.323Z,3.50
2018-08-18T05:43:38.476Z,7.53
2018-08-18T05:48:41.510Z,4.03
2018-08-18T05:53:44.586Z,6.80
2018-08-18T05:58:53.652Z,3.57
2018-08-18T06:04:03.980Z,4.27
2018-08-18T06:09:09.162Z,5.00
2018-08-18T06:14:12.893Z,2.47
2018-08-18T06:19:15.943Z,11.00
2018-08-18T06:24:18.969Z,6.13
2018-08-18T06:29:21.993Z,4.13
2018-08-18T06:34:25.434Z,4.27
2018-08-18T06:39:38.556Z,5.77
2018-08-18T06:44:41.588Z,2.10
2018-08-18T06:49:44.664Z,4.00
2018-08-18T06:54:48.762Z,3.90
2018-08-18T06:59:51.738Z,6.43
2018-08-18T07:04:54.756Z,3.83
2018-08-18T07:09:57.809Z,5.37
2018-08-18T07:15:14.531Z,5.13
2018-08-18T07:20:17.940Z,2.87
2018-08-18T07:25:21.132Z,9.63
2018-08-18T07:30:24.288Z,4.03
2018-08-18T07:35:27.368Z,6.67
2018-08-18T07:40:35.856Z,5.33
2018-08-18T07:45:38.889Z,5.47
2018-08-18T07:50:41.963Z,6.03
2018-08-18T07:55:45.116Z,4.30
2018-08-18T08:00:48.154Z,4.30
2018-08-18T08:05:52.103Z,5.30
2018-08-18T08:11:00.216Z,3.93
2018-08-18T08:16:03.345Z,3.40
2018-08-18T08:21:07.353Z,6.17
2018-08-18T08:26:10.794Z,3.50
2018-08-18T08:31:14.649Z,4.00
2018-08-18T08:36:18.554Z,15.67
2018-08-18T08:41:24.521Z,2.40
2018-08-18T08:46:27.542Z,1.83
2018-08-18T08:51:30.552Z,6.40
2018-08-18T08:56:39.400Z,1.87
2018-08-18T09:01:42.498Z,2.60
2018-08-18T09:06:50.273Z,5.00
2018-08-18T09:11:53.428Z,5.70
2018-08-18T09:16:56.476Z,8.00
2018-08-18T09:22:02.064Z,7.23
2018-08-18T09:27:05.691Z,6.60
2018-08-18T09:32:09.903Z,2.33
2018-08-18T09:37:12.949Z,5.60
2018-08-18T09:42:17.128Z,1.60
2018-08-18T09:47:20.166Z,6.90
2018-08-18T09:52:24.605Z,3.43
2018-08-18T09:57:28.441Z,4.50
2018-08-18T10:02:32.063Z,3.53
2018-08-18T10:07:35.585Z,2.50
2018-08-18T10:12:39.709Z,3.10
2018-08-18T10:17:43.289Z,2.60
2018-08-18T10:22:47.314Z,2.53
2018-08-18T10:27:51.271Z,2.70
2018-08-18T10:32:55.838Z,2.60
2018-08-18T10:37:59.891Z,5.63
2018-08-18T10:43:02.911Z,2.83
2018-08-18T10:48:06.189Z,2.80
2018-08-18T10:53:09.244Z,3.20
2018-08-18T10:58:22.586Z,3.53
2018-08-18T11:03:25.594Z,4.50
2018-08-18T11:08:28.797Z,2.13
2018-08-18T11:13:32.189Z,2.57
2018-08-18T11:18:35.499Z,3.43
2018-08-18T11:23:38.513Z,4.07
2018-08-18T11:28:41.710Z,3.90
2018-08-18T11:33:44.984Z,2.87
2018-08-18T11:38:48.014Z,2.77
2018-08-18T11:43:51.567Z,4.30
2018-08-18T11:48:54.760Z,3.63
2018-08-18T11:54:00.709Z,3.80
2018-08-18T11:59:07.774Z,5.67
2018-08-18T12:04:10.889Z,2.90
2018-08-18T12:09:13.984Z,4.90
2018-08-18T12:14:19.088Z,3.80
2018-08-18T12:19:22.103Z,5.80
2018-08-18T12:24:25.132Z,11.67
2018-08-18T12:29:29.790Z,9.60
2018-08-18T12:34:32.794Z,8.00
2018-08-18T12:39:35.816Z,9.43
2018-08-18T12:44:38.887Z,5.53
2018-08-18T12:49:41.949Z,4.47
2018-08-18T12:54:45.224Z,4.10
2018-08-18T12:59:48.249Z,2.77
2018-08-18T13:04:51.515Z,3.40
2018-08-18T13:10:06.146Z,3.63
2018-08-18T13:15:09.225Z,5.93
2018-08-18T13:20:15.748Z,5.53
2018-08-18T13:25:18.782Z,4.30
2018-08-18T13:30:22.719Z,6.47
2018-08-18T13:35:25.769Z,6.63
2018-08-18T13:40:29.254Z,3.30
2018-08-18T13:45:43.509Z,7.00
2018-08-18T13:50:46.651Z,3.07
2018-08-18T13:55:49.708Z,4.43
2018-08-18T14:00:52.748Z,5.07
2018-08-18T14:05:56.232Z,7.77
2018-08-18T14:10:59.358Z,4.67
2018-08-18T14:16:02.481Z,5.60
2018-08-18T14:21:07.125Z,2.97
2018-08-18T14:26:10.187Z,4.57
2018-08-18T14:31:13.237Z,2.50
2018-08-18T14:36:17.017Z,2.73
2018-08-18T14:41:40.037Z,7.70
2018-08-18T14:46:43.190Z,2.97
2018-08-18T14:51:46.132Z,5.37
2018-08-18T14:56:49.167Z,3.87
2018-08-18T15:01:52.214Z,4.50
2018-08-18T15:06:55.293Z,4.20
2018-08-18T15:11:59.332Z,3.83
2018-08-18T15:17:02.388Z,5.27
2018-08-18T15:22:12.600Z,5.07
2018-08-18T15:27:15.628Z,3.10
2018-08-18T15:32:18.678Z,3.93
2018-08-18T15:37:21.726Z,3.90
2018-08-18T15:42:24.832Z,3.10
2018-08-18T15:47:28.753Z,3.67
2018-08-18T15:52:32.974Z,4.43
2018-08-18T15:57:36.015Z,9.73
2018-08-18T16:02:39.032Z,4.90
2018-08-18T16:07:42.327Z,3.27
2018-08-18T16:12:45.582Z,3.27
2018-08-18T16:17:48.677Z,3.83
2018-08-18T16:22:53.848Z,3.50
2018-08-18T16:27:56.933Z,5.80
2018-08-18T16:33:16.748Z,4.83
2018-08-18T16:38:19.782Z,4.20
2018-08-18T16:43:22.800Z,3.87
2018-08-18T16:48:25.846Z,3.77
2018-08-18T16:53:28.863Z,3.47
2018-08-18T16:58:32.016Z,5.30
2018-08-18T17:03:35.581Z,5.43
2018-08-18T17:08:38.635Z,4.33
2018-08-18T17:13:41.673Z,5.43
2018-08-18T17:18:44.693Z,5.40
2018-08-18T17:23:47.794Z,6.30
2018-08-18T17:28:50.814Z,3.23
2018-08-18T17:33:53.928Z,3.43
2018-08-18T17:38:57.791Z,3.10
2018-08-18T17:44:01.568Z,9.13
2018-08-18T17:49:04.620Z,8.47
2018-08-18T17:54:07.649Z,3.80
2018-08-18T17:59:10.751Z,3.17
2018-08-18T18:04:13.773Z,2.80
2018-08-18T18:09:16.820Z,3.40
2018-08-18T18:14:20.009Z,6.00
2018-08-18T18:19:23.029Z,5.13
2018-08-18T18:24:37.701Z,6.70
2018-08-18T18:29:42.534Z,4.13
2018-08-18T18:34:47.323Z,5.53
2018-08-18T18:39:58.973Z,6.47
2018-08-18T18:45:01.987Z,3.87
2018-08-18T18:50:05.900Z,6.53
2018-08-18T18:55:09.165Z,7.70
2018-08-18T19:00:12.195Z,7.70
2018-08-18T19:05:22.431Z,4.23
2018-08-18T19:10:25.472Z,11.10
2018-08-18T19:15:28.677Z,6.10
2018-08-18T19:20:31.877Z,5.87
2018-08-18T19:25:36.216Z,6.00
2018-08-18T19:30:39.360Z,5.60
2018-08-18T19:35:43.541Z,7.43
2018-08-18T19:40:47.725Z,8.07
2018-08-18T19:45:51.084Z,6.33
2018-08-18T19:50:59.554Z,8.27
2018-08-18T19:56:03.033Z,6.80
2018-08-18T20:01:06.565Z,6.13
2018-08-18T20:06:15.772Z,8.77
2018-08-18T20:11:19.010Z,8.50
2018-08-18T20:16:22.177Z,6.90
2018-08-18T20:21:25.192Z,8.03
2018-08-18T20:26:28.224Z,7.47
2018-08-18T20:31:31.263Z,8.57
2018-08-18T20:36:34.361Z,7.70
2018-08-18T20:41:37.789Z,9.10
2018-08-18T20:46:40.936Z,7.10
2018-08-18T20:51:44.023Z,9.00
2018-08-18T20:56:47.096Z,11.13
2018-08-18T21:01:50.105Z,11.20
2018-08-18T21:06:53.286Z,8.20
2018-08-18T21:11:56.514Z,18.03
2018-08-18T21:16:59.664Z,9.40
2018-08-18T21:22:02.901Z,8.67
2018-08-18T21:27:05.959Z,12.83
2018-08-18T21:32:09.008Z,11.20
2018-08-18T21:37:12.025Z,11.13
2018-08-18T21:42:15.095Z,9.97
2018-08-18T21:47:18.112Z,11.00
2018-08-18T21:52:21.141Z,8.93
2018-08-18T21:57:24.153Z,13.83
2018-08-18T22:02:39.196Z,10.50
2018-08-18T22:07:47.676Z,11.93
2018-08-18T22:12:50.692Z,12.07
2018-08-18T22:17:53.756Z,13.30
2018-08-18T22:22:56.830Z,12.83
2018-08-18T22:27:59.872Z,17.63
2018-08-18T22:33:02.942Z,12.03
2018-08-18T22:38:05.944Z,11.47
2018-08-18T22:43:08.980Z,10.07
2018-08-18T22:48:11.982Z,14.73
2018-08-18T22:53:15.004Z,10.73
2018-08-18T22:58:18.035Z,14.40
2018-08-18T23:03:21.080Z,11.57
2018-08-18T23:08:24.112Z,10.97
2018-08-18T23:13:27.208Z,13.60
2018-08-18T23:18:30.484Z,11.80
2018-08-18T23:23:33.523Z,14.67
2018-08-18T23:28:36.548Z,10.80
2018-08-18T23:33:39.587Z,14.10
2018-08-18T23:38:47.201Z,12.03
2018-08-18T23:43:50.368Z,11.40
2018-08-18T23:48:53.384Z,11.23
2018-08-18T23:53:56.433Z,15.83
2018-08-18T23:58:59.467Z,10.40
